KMTN

Martin State Airport

Baltimore, Maryland, USA
KMTN 211720Z 2118/2218 28006KT P6SM FEW150 SCT250 FM220400 VRB03KT P6SM SCT140 BKN150
Issued Valid From Valid To
Apr-21 @ 17:20 UTC
(6 hours ago)
Apr-21 @ 18:00 UTC
(5 hours ago)
Apr-22 @ 18:00 UTC
(in 19 hours)
Apr-21 @ 18:00 to Apr-22 @ 04:00
KMTN 211720Z 2118/2218 28006KT P6SM FEW150 SCT250
Wind Visibility Clouds
280° at 6 knots Greater than 6 miles
  • Few at 15,000' AGL
  • Scattered at 25,000' AGL
From Apr-22 @ 04:00 to Apr-22 @ 18:00
FM220400 VRB03KT P6SM SCT140 BKN150
Wind Visibility Clouds
Variable at 3 knots Greater than 6 miles
  • Scattered at 14,000' AGL
  • Broken at 15,000' AGL
KMTN 211720Z 2118/2218 28006KT P6SM FEW150 SCT250 FM220400 VRB03KT P6SM SCT140 BKN150
Issued Apr-21 @ 17:20 UTC
(6 hours ago)
Valid From Apr-21 @ 18:00 UTC
(5 hours ago)
Valid To Apr-22 @ 18:00 UTC
(in 19 hours)
Apr-21 @ 18:00 - Apr-22 @ 04:00
Wind Visibility
280° at 6 knots Greater than 6 miles
Clouds
  • Few at 15,000' AGL
  • Scattered at 25,000' AGL
From Apr-22 @ 04:00 - Apr-22 @ 18:00
Wind Visibility
Variable at 3 knots Greater than 6 miles
Clouds
  • Scattered at 14,000' AGL
  • Broken at 15,000' AGL